Time;durP1;ratioP1;P1;durP2;ratioP2;P2;SDS_P1;SDS_P2;PMS_P1;PMS_P2;Temp;Humidity;BMP_temperature;BMP_pressure;BME280_temperature;BME280_humidity;BME280_pressure;Samples;Min_cycle;Max_cycle;Signal;HPM_P1;HPM_P2
2022/11/06 06:40:12;;;;;;;;;;;;;;;17.89;56.03;99320.03;1940344;72;20135;-71
2022/11/06 06:43:00;;;;;;;;;;;;;;;18.27;55.43;99320.24;1919336;74;20183;-70
2022/11/06 06:45:47;;;;;;;;;;;;;;;19.09;54.13;99319.94;1897458;75;20163;-72
2022/11/06 06:48:35;;;;;;;;;;;;;;;19.87;53.05;99313.77;1915688;75;20235;-73
2022/11/06 06:51:22;;;;;;;;;;;;;;;20.49;52.14;99312.85;1888323;75;20178;-74
2022/11/06 06:54:09;;;;;;;;;;;;;;;20.98;51.31;99317.35;1910772;75;20131;-73
2022/11/06 06:56:56;;;;;;;;;;;;;;;21.37;50.69;99312.77;1892099;75;20177;-72
2022/11/06 06:59:44;;;;;;;;;;;;;;;21.67;49.84;99317.70;1905303;75;20123;-70
2022/11/06 07:02:31;;;;;;;;;;;;;;;21.91;48.96;99311.25;1899433;75;20140;-72
2022/11/06 07:05:19;;;;;;;;;;;;;;;22.14;48.50;99317.84;1910277;75;20119;-72
2022/11/06 07:08:08;;;;;;;;;;;;;;;22.34;48.02;99321.91;1903783;75;20238;-72
2022/11/06 07:11:04;;;;;;;1.27;1.27;;;;;;;22.47;47.24;99324.95;1902448;75;28107;-72
2022/11/06 07:13:56;;;;;;;1.10;1.10;;;;;;;22.58;46.64;99316.75;1890976;75;28131;-87
2022/11/06 07:16:44;;;;;;;1.22;1.22;;;;;;;22.68;46.10;99318.92;1869556;75;32086;-81
2022/11/06 07:19:33;;;;;;;1.10;1.10;;;;;;;22.75;45.66;99315.52;1880811;75;28099;-84
2022/11/06 07:22:22;;;;;;;2.80;1.07;;;;;;;22.79;45.17;99313.12;1857773;75;28244;-78
2022/11/06 07:25:10;;;;;;;1.20;1.00;;;;;;;22.85;44.74;99325.31;1893110;75;28056;-75
2022/11/06 07:28:06;;;;;;;1.10;1.10;;;;;;;22.91;44.73;99335.32;1883019;75;28189;-82
2022/11/06 07:31:00;;;;;;;1.05;1.02;;;;;;;23.00;44.54;99337.14;1873508;75;28029;-83
2022/11/06 07:33:48;;;;;;;1.00;0.90;;;;;;;23.05;44.35;99325.77;1880237;75;28168;-82
2022/11/06 07:36:36;;;;;;;3.47;1.27;;;;;;;23.08;44.33;99328.00;1892507;75;28132;-82
2022/11/06 07:39:25;;;;;;;1.00;1.00;;;;;;;23.09;44.38;99328.31;1875430;74;28112;-80
2022/11/06 07:42:13;;;;;;;1.17;1.02;;;;;;;23.10;44.44;99327.25;1832100;76;28083;-80
2022/11/06 07:45:03;;;;;;;1.33;1.23;;;;;;;23.14;44.26;99318.84;1845366;77;28236;-81
2022/11/06 07:47:52;;;;;;;1.00;1.00;;;;;;;23.14;44.15;99317.47;1846405;76;28161;-81
2022/11/06 07:50:41;;;;;;;1.00;1.00;;;;;;;23.14;44.02;99313.36;1845466;74;28135;-81
2022/11/06 07:53:30;;;;;;;1.02;1.02;;;;;;;23.13;43.83;99314.95;1837605;77;28398;-81
2022/11/06 07:56:18;;;;;;;1.15;1.10;;;;;;;23.13;43.68;99317.69;1834027;77;28266;-81
2022/11/06 07:59:07;;;;;;;0.83;0.83;;;;;;;23.11;43.57;99315.20;1839289;77;28240;-81
2022/11/06 08:01:55;;;;;;;;;;;;;;;23.11;43.51;99312.98;1846068;76;28323;-80
2022/11/06 08:04:43;;;;;;;;;;;;;;;23.10;43.43;99309.97;1885383;76;20209;-80
2022/11/06 08:07:31;;;;;;;;;;;;;;;23.08;43.35;99309.39;1876479;76;20166;-81
2022/11/06 08:10:18;;;;;;;;;;;;;;;23.06;43.30;99306.87;1864987;76;20127;-80
2022/11/06 08:13:06;;;;;;;;;;;;;;;23.11;43.17;99305.61;1876643;76;20183;-81
2022/11/06 08:15:54;;;;;;;;;;;;;;;23.09;43.07;99304.19;1883968;76;20121;-81
2022/11/06 08:18:42;;;;;;;;;;;;;;;23.08;43.03;99304.72;1866040;76;20123;-80
2022/11/06 08:21:30;;;;;;;1.50;1.02;;;;;;;23.04;43.06;99304.07;1861944;76;28409;-80
2022/11/06 08:24:18;;;;;;;1.10;1.00;;;;;;;23.00;43.07;99295.52;1860016;76;28178;-80
2022/11/06 08:27:07;;;;;;;0.80;0.80;;;;;;;23.01;43.00;99296.36;1864587;76;28283;-80
2022/11/06 08:29:55;;;;;;;1.00;1.00;;;;;;;23.00;43.00;99293.31;1863488;76;28181;-81
2022/11/06 08:32:44;;;;;;;1.00;1.00;;;;;;;23.02;42.95;99287.89;1848248;76;28246;-81
2022/11/06 08:35:34;;;;;;;0.90;0.90;;;;;;;23.02;42.85;99282.41;1845478;76;28312;-80
2022/11/06 08:38:22;;;;;;;0.82;0.82;;;;;;;23.01;42.89;99276.63;1852145;76;28287;-80
2022/11/06 08:41:12;;;;;;;0.82;0.82;;;;;;;22.99;42.82;99277.41;1828773;77;28677;-80
2022/11/06 08:44:00;;;;;;;0.97;0.97;;;;;;;22.98;42.82;99278.50;1819488;77;28220;-80
2022/11/06 08:46:51;;;;;;;1.00;1.00;;;;;;;22.98;42.82;99277.13;1832902;77;28323;-81
2022/11/06 08:49:40;;;;;;;1.00;1.00;;;;;;;22.99;42.82;99276.56;1875963;75;28034;-80
2022/11/06 08:52:28;;;;;;;;;;;;;;;22.99;42.74;99281.52;1902599;75;28033;-80
2022/11/06 08:55:16;;;;;;;1.00;1.00;;;;;;;23.00;42.70;99274.14;1885333;75;28149;-81
2022/11/06 08:58:06;;;;;;;1.10;1.10;;;;;;;22.98;42.70;99267.54;1878746;75;28055;-81
2022/11/06 09:00:54;;;;;;;0.80;0.80;;;;;;;23.00;42.65;99262.65;1874044;75;28102;-81
2022/11/06 09:03:41;;;;;;;;;;;;;;;23.00;42.64;99258.54;1884222;75;27991;-81
2022/11/06 09:06:29;;;;;;;;;;;;;;;22.99;42.64;99260.13;1896586;75;20227;-81
2022/11/06 09:09:16;;;;;;;;;;;;;;;23.00;42.55;99261.81;1877531;75;20173;-80
2022/11/06 09:12:05;;;;;;;0.90;0.90;;;;;;;22.97;42.59;99260.38;1867317;75;28186;-81
2022/11/06 09:14:54;;;;;;;1.12;0.90;;;;;;;22.99;42.61;99266.45;1881959;75;28054;-81
2022/11/06 09:17:47;;;;;;;0.90;0.90;;;;;;;23.01;42.46;99265.66;1865320;75;28102;-80
2022/11/06 09:20:35;;;;;;;1.50;0.90;;;;;;;23.03;42.50;99261.33;1846589;75;28215;-80
2022/11/06 09:23:24;;;;;;;0.80;0.80;;;;;;;23.03;42.45;99256.69;1802236;78;28167;-80
2022/11/06 09:26:13;;;;;;;0.95;0.95;;;;;;;23.03;42.42;99241.63;1798853;79;28285;-80
2022/11/06 09:29:01;;;;;;;0.90;0.90;;;;;;;23.06;42.34;99243.86;1806691;79;28368;-81
2022/11/06 09:31:50;;;;;;;0.90;0.90;;;;;;;23.08;42.24;99249.92;1804632;79;28309;-81
2022/11/06 09:34:39;;;;;;;1.00;1.00;;;;;;;23.09;42.23;99251.59;1860338;76;28041;-80
2022/11/06 09:37:27;;;;;;;0.75;0.75;;;;;;;23.08;42.20;99251.29;1882033;75;28100;-81
2022/11/06 09:40:27;;;;;;;1.05;1.05;;;;;;;23.08;42.17;99247.74;1857919;76;28083;-80
2022/11/06 09:43:36;;;;;;;0.90;0.90;;;;;;;23.10;42.09;99243.69;1827944;77;28687;-79
2022/11/06 09:46:28;;;;;;;0.90;0.90;;;;;;;23.09;42.14;99252.97;1861168;76;28083;-76
2022/11/06 09:49:35;;;;;;;1.37;0.90;;;;;;;23.08;42.14;99241.70;1858986;76;28191;-80
2022/11/06 15:46:03;;;;;;;;;;;;;;;18.11;54.32;99064.63;1951520;72;20263;-81
2022/11/06 15:49:10;;;;;;;;;;;;;;;18.50;54.10;99059.05;1886935;76;20127;-79
2022/11/06 15:52:01;;;;;;;;;;;;;;;19.42;53.40;99043.91;1825288;78;20351;-82
2022/11/06 15:54:50;;;;;;;;;;;;;;;20.19;52.20;99056.31;1829021;78;20209;-82
2022/11/06 15:57:38;;;;;;;;;;;;;;;20.82;51.76;99054.53;1833146;77;20182;-77
2022/11/06 16:00:27;;;;;;;25.00;7.40;;;;;;;21.31;50.83;99055.51;1834308;77;28375;-84
2022/11/06 16:03:18;;;;;;;8.18;2.75;;;;;;;21.65;47.27;99069.73;1828395;77;28298;-82
2022/11/06 16:06:10;;;;;;;2.30;2.00;;;;;;;21.78;43.32;99071.36;1892277;75;28103;-80
2022/11/06 16:08:59;;;;;;;11.30;3.70;;;;;;;21.85;41.07;99067.47;1887338;75;28153;-81
